Sklinnabanken — LJQM — position and weather

sailwx.info

Track history (hours):
 
Tides and Currents Weather Stations Pressure Air Temp Water Temp Dewpoint Dewpoint Depression Visibility Wind Speed Wind Dir Waves Ship Positions

Sklinnabanken

Last reported at 2016-Jan-26 18:33 UTC. Time now 2016-Feb-08 03:58 UTC.
Position N 63°30' E 009°06'.
Warning: this ship's position is 12 days out of date.

Length 28 m; draft 6 m.

Type: Fishing. MMSI: 259648000.

Date/timePositionNaut miles runAvg speedWind from/ knotsBaromVisibWave heightAir tempDewpointWater temp
2016-Jan-26 18:33N 63°30' E 009°06'9 8.6
2016-Jan-26 17:32N 63°34' E 009°23'8 8.1
2016-Jan-26 16:33N 63°42' E 009°30'8 8.4
2016-Jan-26 15:33N 63°50' E 009°37'8 8.4
2016-Jan-26 14:33N 63°56' E 009°48'54 7.4
2016-Jan-26 07:14N 64°42' E 010°53'5 7.8
2016-Jan-26 06:33N 64°46' E 011°02'9 8.6
2016-Jan-26 05:33N 64°52' E 011°17'9 8.7
2016-Jan-26 04:33N 64°58' E 011°32'8 8.3
2016-Jan-26 03:33N 65°04' E 011°45'8 8.4
2016-Jan-26 02:33N 65°12' E 011°52'75 7.2
2016-Jan-25 16:09N 66°22' E 012°57'6 8.5
2016-Jan-25 15:27N 66°28' E 012°59'27 3.0
2016-Jan-25 06:28N 66°51' E 013°34'8 8.7
2016-Jan-25 05:33N 66°59' E 013°27'146 2.9
2016-Jan-23 03:16N 68°58' E 017°09'10 8.7
2016-Jan-23 02:09N 69°06' E 017°26'5 8.6
2016-Jan-23 01:33N 69°08' E 017°39'  
Track history (hours):
 
Tides and Currents Weather Stations Pressure Air Temp Water Temp Dewpoint Dewpoint Depression Visibility Wind Speed Wind Dir Waves Ship Positions

Sklinnabanken

Last reported at 2016-Jan-26 18:33 UTC. Time now 2016-Feb-08 03:58 UTC.
Position N 63°30' E 009°06'.
Warning: this ship's position is 12 days out of date.

Length 28 m; draft 6 m.

Type: Fishing. MMSI: 259648000.

Date/timePositionNaut miles runAvg speedWind from/ knotsBaromVisibWave heightAir tempDewpointWater temp
2016-Jan-26 18:33N 63°30' E 009°06'9 8.6
2016-Jan-26 17:32N 63°34' E 009°23'8 8.1
2016-Jan-26 16:33N 63°42' E 009°30'8 8.4
2016-Jan-26 15:33N 63°50' E 009°37'8 8.4
2016-Jan-26 14:33N 63°56' E 009°48'54 7.4
2016-Jan-26 07:14N 64°42' E 010°53'5 7.8
2016-Jan-26 06:33N 64°46' E 011°02'9 8.6
2016-Jan-26 05:33N 64°52' E 011°17'9 8.7
2016-Jan-26 04:33N 64°58' E 011°32'8 8.3
2016-Jan-26 03:33N 65°04' E 011°45'8 8.4
2016-Jan-26 02:33N 65°12' E 011°52'75 7.2
2016-Jan-25 16:09N 66°22' E 012°57'6 8.5
2016-Jan-25 15:27N 66°28' E 012°59'27 3.0
2016-Jan-25 06:28N 66°51' E 013°34'8 8.7
2016-Jan-25 05:33N 66°59' E 013°27'146 2.9
2016-Jan-23 03:16N 68°58' E 017°09'10 8.7
2016-Jan-23 02:09N 69°06' E 017°26'5 8.6
2016-Jan-23 01:33N 69°08' E 017°39'  

Dump ship's entire track history